Chaffee, North Dakota
Current Conditions -  °F | °C
As of 2:53 AM on Monday 24 Nov 2014 (Local Time) from KFAR Reporting Station
Light Snow Light Snow  
Wind Chill: -4°   Ceiling: 2100
Heat Index: 15°   Visibility: 4mi
Dew Point: 10°   Wind: 25mph
Humidity: 80%   Direction: 330°NNW
Pressure: 29.6"   Gusts: 32mph
Location:  46.77°N, 97.35°W
Report Text: KFAR 240853Z AUTO 33022G28KT 4SM -SN OVC021 M09/M12 A2960 RMK AO2 PK WND 33030/0807 SLP036 P0000 60000 T10941122 53006 TSNO
Loading
Personal Weather Stations






























Interactive Weather Map New forecast layout! Learn more

10-Day Weather Forecast

Advertisements
Track Severe Weather on mobile